createdAt,value
2022-08-16T00:02:45.957Z,19.63
2022-08-16T00:24:04.668Z,19.87
2022-08-16T00:35:00.616Z,19.36
2022-08-16T00:46:00.802Z,19.09
2022-08-16T00:57:00.247Z,18.79
2022-08-16T01:07:55.647Z,18.89
2022-08-16T01:18:56.116Z,19.42
2022-08-16T01:29:58.590Z,19.82
2022-08-16T01:40:57.514Z,19.86
2022-08-16T01:51:58.933Z,20.08
2022-08-16T02:02:58.582Z,20.43
2022-08-16T02:24:31.528Z,20.83
2022-08-16T02:45:49.434Z,20.53
2022-08-16T02:56:53.190Z,20.90
2022-08-16T03:07:54.549Z,20.71
2022-08-16T03:18:55.687Z,20.99
2022-08-16T03:29:58.700Z,21.59
2022-08-16T03:41:00.249Z,21.57
2022-08-16T03:52:04.165Z,21.67
2022-08-16T04:03:03.999Z,21.31
2022-08-16T04:14:08.620Z,21.05
2022-08-16T04:25:07.528Z,21.08
2022-08-16T04:36:05.355Z,21.19
2022-08-16T04:57:30.105Z,21.64
2022-08-16T05:08:37.346Z,21.44
2022-08-16T05:19:39.643Z,21.33
2022-08-16T05:30:44.504Z,21.44
2022-08-16T05:41:44.723Z,21.46
2022-08-16T05:52:46.239Z,21.49
2022-08-16T06:03:44.182Z,22.04
2022-08-16T06:14:45.626Z,22.44
2022-08-16T06:25:52.966Z,22.74
2022-08-16T06:36:48.624Z,22.97
2022-08-16T06:47:53.466Z,23.24
2022-08-16T06:58:51.556Z,23.52
2022-08-16T07:09:53.119Z,23.86
2022-08-16T07:20:53.932Z,24.69
2022-08-16T07:31:54.033Z,24.73
2022-08-16T07:42:48.591Z,24.90
2022-08-16T07:53:47.330Z,25.08
2022-08-16T08:04:23.679Z,25.27
2022-08-16T08:15:25.528Z,25.45
2022-08-16T08:26:18.329Z,25.47
2022-08-16T08:37:14.639Z,25.71
2022-08-16T08:48:33.745Z,26.49
2022-08-16T08:59:20.140Z,26.90
2022-08-16T09:10:20.931Z,27.14
2022-08-16T09:21:20.574Z,27.36
2022-08-16T09:32:28.711Z,27.42
2022-08-16T09:43:57.897Z,27.07
2022-08-16T09:54:32.510Z,28.01
2022-08-16T10:05:30.907Z,28.09
2022-08-16T10:16:34.248Z,28.49
2022-08-16T10:27:46.280Z,28.39
2022-08-16T10:38:36.704Z,29.07
2022-08-16T10:49:31.163Z,30.14
2022-08-16T11:00:06.776Z,31.14
2022-08-16T11:11:14.174Z,31.73
2022-08-16T11:22:22.744Z,31.42
2022-08-16T11:33:12.058Z,30.02
2022-08-16T11:44:07.700Z,29.99
2022-08-16T11:55:13.480Z,31.49
2022-08-16T12:06:06.719Z,32.23
2022-08-16T12:17:01.901Z,33.06
2022-08-16T12:28:02.887Z,31.04
2022-08-16T12:38:54.846Z,32.62
2022-08-16T12:49:53.054Z,32.99
2022-08-16T13:00:54.381Z,35.24
2022-08-16T13:11:57.874Z,33.89
2022-08-16T13:22:51.331Z,35.75
2022-08-16T13:33:49.894Z,31.82
2022-08-16T13:44:56.037Z,30.71
2022-08-16T13:55:44.940Z,29.40
2022-08-16T14:06:47.049Z,29.06
2022-08-16T14:18:17.413Z,29.11
2022-08-16T14:28:50.986Z,29.25
2022-08-16T14:39:55.124Z,34.16
2022-08-16T14:51:01.732Z,33.85
2022-08-16T15:02:01.047Z,31.51
2022-08-16T15:12:50.889Z,33.64
2022-08-16T15:23:50.539Z,31.11
2022-08-16T15:34:51.301Z,28.96
2022-08-16T15:45:55.595Z,29.89
2022-08-16T15:56:53.188Z,29.93
2022-08-16T16:07:56.676Z,29.78
2022-08-16T16:18:54.437Z,29.53
2022-08-16T16:29:58.093Z,29.28
2022-08-16T16:40:54.654Z,28.68
2022-08-16T16:51:55.174Z,27.88
2022-08-16T17:02:59.637Z,27.64
2022-08-16T17:13:59.498Z,27.36
2022-08-16T17:25:01.438Z,26.99
2022-08-16T17:35:58.089Z,26.67
2022-08-16T17:46:57.966Z,25.93
2022-08-16T17:57:56.668Z,25.35
2022-08-16T18:08:48.582Z,24.75
2022-08-16T18:19:57.798Z,24.40
2022-08-16T18:31:00.771Z,23.98
2022-08-16T18:41:56.510Z,23.63
2022-08-16T18:52:50.435Z,23.22
2022-08-16T19:03:27.264Z,22.90
2022-08-16T19:14:25.552Z,22.67
2022-08-16T19:25:28.425Z,22.35
2022-08-16T19:36:32.325Z,22.04
2022-08-16T19:47:24.221Z,21.89
2022-08-16T19:58:23.042Z,21.86
2022-08-16T20:09:22.852Z,21.92
2022-08-16T20:20:22.305Z,21.81
2022-08-16T20:31:20.648Z,21.67
2022-08-16T20:42:21.780Z,21.76
2022-08-16T20:53:23.965Z,21.84
2022-08-16T21:04:21.046Z,21.95
2022-08-16T21:15:22.071Z,21.94
2022-08-16T21:26:19.070Z,21.81
2022-08-16T21:37:20.145Z,21.66
2022-08-16T21:48:19.011Z,21.27
2022-08-16T21:59:25.203Z,20.99
2022-08-16T22:11:06.422Z,20.74
2022-08-16T22:21:30.746Z,20.56
2022-08-16T22:32:31.185Z,20.42
2022-08-16T22:43:32.663Z,20.27
2022-08-16T22:54:40.939Z,20.18
2022-08-16T23:05:35.805Z,20.05
2022-08-16T23:16:36.631Z,19.72
2022-08-16T23:27:38.536Z,19.61
2022-08-16T23:38:40.870Z,19.51
2022-08-16T23:49:57.856Z,19.27
